Time;durP1;ratioP1;P1;durP2;ratioP2;P2;SDS_P1;SDS_P2;PMS_P1;PMS_P2;Temp;Humidity;BMP_temperature;BMP_pressure;BME280_temperature;BME280_humidity;BME280_pressure;Samples;Min_cycle;Max_cycle;Signal;HPM_P1;HPM_P2
2021/07/22 00:01:29;;;;;;;18.47;12.53;;;18.20;99.90;;;;;;4375879;32;20206;-63
2021/07/22 00:03:58;;;;;;;18.67;12.50;;;18.20;99.90;;;;;;4373614;32;20160;-61
2021/07/22 00:06:26;;;;;;;18.73;12.30;;;18.10;99.90;;;;;;4367242;32;20175;-61
2021/07/22 00:08:53;;;;;;;19.73;12.23;;;18.10;99.90;;;;;;4362011;32;20153;-61
2021/07/22 00:11:19;;;;;;;20.47;13.30;;;18.00;99.90;;;;;;4365249;32;20176;-61
2021/07/22 00:13:46;;;;;;;18.87;13.50;;;18.00;99.90;;;;;;4374067;32;20550;-63
2021/07/22 00:16:15;;;;;;;18.47;13.07;;;18.00;99.90;;;;;;4370610;32;20192;-61
2021/07/22 00:18:42;;;;;;;19.83;12.70;;;18.00;99.90;;;;;;4365517;32;20165;-60
2021/07/22 00:21:10;;;;;;;19.63;13.13;;;17.90;99.90;;;;;;4377377;32;20156;-61
2021/07/22 00:23:38;;;;;;;23.70;13.43;;;17.90;99.90;;;;;;4374526;32;20225;-61
2021/07/22 00:26:05;;;;;;;19.23;12.50;;;17.90;99.90;;;;;;4362536;32;20214;-61
2021/07/22 00:28:32;;;;;;;18.73;12.73;;;17.80;99.90;;;;;;4363504;32;20223;-61
2021/07/22 00:30:59;;;;;;;17.40;11.73;;;17.80;99.90;;;;;;4374960;32;20213;-61
2021/07/22 00:33:27;;;;;;;17.73;11.93;;;17.80;99.90;;;;;;4376052;32;20152;-62
2021/07/22 00:35:58;;;;;;;19.93;12.70;;;17.80;99.90;;;;;;4362514;33;20148;-60
2021/07/22 00:38:25;;;;;;;20.70;12.77;;;17.70;99.90;;;;;;4363441;32;20156;-61
2021/07/22 00:40:53;;;;;;;17.17;12.43;;;17.70;99.90;;;;;;4364554;32;20225;-61
2021/07/22 00:43:20;;;;;;;19.70;13.40;;;17.70;99.90;;;;;;4362821;32;20191;-61
2021/07/22 00:45:47;;;;;;;17.97;12.20;;;17.70;99.90;;;;;;4364454;32;20191;-61
2021/07/22 00:48:14;;;;;;;16.30;11.33;;;17.70;99.90;;;;;;4375895;32;20160;-61
2021/07/22 00:50:41;;;;;;;21.23;12.67;;;17.70;99.90;;;;;;4377164;32;20525;-61
2021/07/22 00:53:08;;;;;;;17.80;12.40;;;17.60;99.90;;;;;;4370420;32;20175;-62
2021/07/22 00:55:35;;;;;;;20.20;13.03;;;17.60;99.90;;;;;;4362259;33;20179;-62
2021/07/22 00:58:03;;;;;;;17.43;12.53;;;17.50;99.90;;;;;;4371435;32;20248;-62
2021/07/22 01:00:31;;;;;;;18.63;11.73;;;17.50;99.90;;;;;;4368490;32;20173;-62
2021/07/22 01:02:58;;;;;;;17.00;12.57;;;17.50;99.90;;;;;;4364254;32;20152;-61
2021/07/22 01:05:25;;;;;;;17.23;11.70;;;17.50;99.90;;;;;;4366849;32;20169;-62
2021/07/22 01:07:55;;;;;;;19.17;11.57;;;17.50;99.90;;;;;;4367218;32;20164;-61
2021/07/22 01:10:22;;;;;;;16.60;11.40;;;17.50;99.90;;;;;;4370774;32;20183;-62
2021/07/22 01:12:49;;;;;;;16.80;11.67;;;17.50;99.90;;;;;;4368359;32;20167;-61
2021/07/22 01:15:17;;;;;;;15.97;11.50;;;17.40;99.90;;;;;;4363680;32;20169;-61
2021/07/22 01:17:46;;;;;;;16.13;11.30;;;17.40;99.90;;;;;;4369467;32;20224;-62
2021/07/22 01:20:15;;;;;;;19.67;12.30;;;17.40;99.90;;;;;;4362163;32;20192;-62
2021/07/22 01:22:42;;;;;;;18.37;11.60;;;17.40;99.90;;;;;;4361942;32;20159;-61
2021/07/22 01:25:10;;;;;;;17.90;12.23;;;17.40;99.90;;;;;;4362785;32;20511;-62
2021/07/22 01:27:37;;;;;;;20.07;10.77;;;17.30;99.90;;;;;;4366071;32;20615;-62
2021/07/22 01:30:05;;;;;;;16.57;11.27;;;17.30;99.90;;;;;;4365841;32;20691;-61
2021/07/22 01:32:32;;;;;;;15.27;10.20;;;17.30;99.90;;;;;;4370371;32;20194;-61
2021/07/22 01:35:02;;;;;;;15.67;11.13;;;17.20;99.90;;;;;;4377928;32;20156;-62
2021/07/22 01:37:30;;;;;;;15.70;10.33;;;17.20;99.90;;;;;;4373375;32;20495;-61
2021/07/22 01:39:59;;;;;;;17.03;11.13;;;17.20;99.90;;;;;;4376822;32;20201;-62
2021/07/22 01:42:28;;;;;;;17.97;11.70;;;17.20;99.90;;;;;;4375023;32;20174;-61
2021/07/22 01:44:54;;;;;;;15.67;10.47;;;17.20;99.90;;;;;;4377203;32;20225;-62
2021/07/22 01:47:21;;;;;;;19.53;11.70;;;17.10;99.90;;;;;;4367274;32;20192;-61
2021/07/22 01:49:48;;;;;;;16.33;10.53;;;17.10;99.90;;;;;;4362080;32;20188;-62
2021/07/22 01:52:15;;;;;;;17.73;10.83;;;17.20;99.90;;;;;;4371391;32;20655;-61
2021/07/22 01:54:43;;;;;;;17.13;10.83;;;17.10;99.90;;;;;;4374289;32;20153;-61
2021/07/22 01:57:10;;;;;;;16.27;11.33;;;17.10;99.90;;;;;;4375979;32;20179;-61
2021/07/22 01:59:37;;;;;;;14.23;10.83;;;17.10;99.90;;;;;;4365760;32;20167;-62
2021/07/22 02:02:06;;;;;;;15.67;11.50;;;17.10;99.90;;;;;;4376282;32;20167;-61
2021/07/22 02:04:33;;;;;;;17.57;10.50;;;17.00;99.90;;;;;;4372908;32;20161;-62
2021/07/22 02:07:00;;;;;;;16.90;11.13;;;17.00;99.90;;;;;;4366707;32;20216;-62
2021/07/22 02:09:28;;;;;;;16.47;11.30;;;17.00;99.90;;;;;;4366840;32;20180;-62
2021/07/22 02:11:57;;;;;;;14.83;10.20;;;16.90;99.90;;;;;;4369605;32;20148;-60
2021/07/22 02:14:25;;;;;;;17.87;11.03;;;16.90;99.90;;;;;;4375334;32;20170;-62
2021/07/22 02:16:54;;;;;;;18.37;10.60;;;16.90;99.90;;;;;;4361079;33;20145;-60
2021/07/22 02:19:21;;;;;;;17.23;12.10;;;16.90;99.90;;;;;;4362730;32;20228;-60
2021/07/22 02:21:48;;;;;;;18.40;11.43;;;16.90;99.90;;;;;;4361051;33;20186;-60
2021/07/22 02:24:16;;;;;;;15.53;11.97;;;16.80;99.90;;;;;;4360931;33;20149;-60
2021/07/22 02:26:45;;;;;;;18.67;11.80;;;16.90;99.90;;;;;;4374639;32;20152;-60
2021/07/22 02:29:13;;;;;;;17.40;10.90;;;16.90;99.90;;;;;;4367329;32;20164;-61
2021/07/22 02:31:40;;;;;;;19.20;12.27;;;16.90;99.90;;;;;;4360756;33;20168;-60
2021/07/22 02:34:06;;;;;;;17.27;12.20;;;16.80;99.90;;;;;;4367725;32;20180;-60
2021/07/22 02:36:33;;;;;;;18.63;12.00;;;16.80;99.90;;;;;;4376698;32;20159;-60
2021/07/22 02:39:00;;;;;;;16.20;10.67;;;16.80;99.90;;;;;;4370707;32;20160;-60
2021/07/22 02:41:30;;;;;;;20.13;11.73;;;16.80;99.90;;;;;;4362069;32;20144;-60
2021/07/22 02:43:57;;;;;;;13.73;10.23;;;16.70;99.90;;;;;;4365648;32;20156;-61
2021/07/22 02:46:25;;;;;;;15.27;11.10;;;16.70;99.90;;;;;;4364029;32;20161;-61
2021/07/22 02:48:56;;;;;;;18.43;12.23;;;16.60;99.90;;;;;;4361846;32;20212;-61
2021/07/22 02:51:23;;;;;;;18.80;12.43;;;16.60;99.90;;;;;;4360448;32;20149;-61
2021/07/22 02:53:50;;;;;;;16.90;12.47;;;16.50;99.90;;;;;;4364602;32;20152;-60
2021/07/22 02:56:17;;;;;;;17.40;12.67;;;16.50;99.90;;;;;;4376307;32;20552;-60
2021/07/22 02:58:44;;;;;;;16.43;11.73;;;16.50;99.90;;;;;;4374801;32;20477;-61
2021/07/22 03:01:11;;;;;;;16.53;11.47;;;16.50;99.90;;;;;;4373315;32;20170;-61
2021/07/22 03:03:39;;;;;;;15.03;11.70;;;16.50;99.90;;;;;;4362350;32;20181;-61
2021/07/22 03:06:06;;;;;;;17.37;12.00;;;16.50;99.90;;;;;;4361071;32;20476;-61
2021/07/22 03:08:35;;;;;;;20.57;12.30;;;16.50;99.90;;;;;;4360107;32;20183;-60
2021/07/22 03:11:02;;;;;;;15.90;11.80;;;16.40;99.90;;;;;;4361999;32;20610;-61
2021/07/22 03:13:30;;;;;;;18.83;11.50;;;16.40;99.90;;;;;;4371595;32;20203;-61
2021/07/22 03:15:57;;;;;;;18.13;11.70;;;16.40;99.90;;;;;;4375423;32;20560;-61
2021/07/22 03:18:24;;;;;;;18.90;12.13;;;16.40;99.90;;;;;;4363868;32;20195;-61
2021/07/22 03:20:52;;;;;;;20.57;11.90;;;16.40;99.90;;;;;;4363579;32;20145;-61
2021/07/22 03:23:19;;;;;;;17.60;11.33;;;16.40;99.90;;;;;;4361331;32;20517;-61
2021/07/22 03:25:47;;;;;;;16.80;11.40;;;16.30;99.90;;;;;;4369720;32;20179;-61
2021/07/22 03:28:14;;;;;;;19.17;12.40;;;16.30;99.90;;;;;;4374891;32;20171;-61
2021/07/22 03:30:41;;;;;;;17.73;11.90;;;16.30;99.90;;;;;;4370280;32;20156;-61
2021/07/22 03:33:08;;;;;;;18.60;12.17;;;16.20;99.90;;;;;;4367623;32;20170;-61
2021/07/22 03:35:37;;;;;;;17.60;12.13;;;16.20;99.90;;;;;;4374417;32;20161;-61
2021/07/22 03:38:05;;;;;;;19.13;13.40;;;16.20;99.90;;;;;;4373783;32;20220;-61
2021/07/22 03:40:32;;;;;;;15.60;12.33;;;16.20;99.90;;;;;;4373337;32;20611;-61
2021/07/22 03:43:00;;;;;;;20.23;12.67;;;16.20;99.90;;;;;;4374290;32;20165;-60
2021/07/22 03:45:29;;;;;;;19.43;12.50;;;16.10;99.90;;;;;;4375670;32;20145;-60
2021/07/22 03:47:59;;;;;;;20.40;12.63;;;16.10;99.90;;;;;;4360483;33;20536;-61
2021/07/22 03:50:26;;;;;;;20.37;12.97;;;16.10;99.90;;;;;;4362284;32;20223;-62
2021/07/22 03:52:56;;;;;;;18.00;12.87;;;16.10;99.90;;;;;;4362953;32;20175;-60
2021/07/22 03:55:26;;;;;;;20.63;13.23;;;16.10;99.90;;;;;;4369813;32;20156;-60
2021/07/22 03:57:55;;;;;;;17.57;12.43;;;16.10;99.90;;;;;;4374554;32;20176;-60
2021/07/22 04:00:22;;;;;;;19.00;12.90;;;16.10;99.90;;;;;;4371348;32;20168;-60
2021/07/22 04:02:59;;;;;;;21.30;13.83;;;16.00;99.90;;;;;;4364314;32;20198;-61
2021/07/22 04:05:25;;;;;;;20.37;13.60;;;16.00;99.90;;;;;;4363408;32;20160;-60
2021/07/22 04:07:57;;;;;;;22.30;12.80;;;16.10;99.90;;;;;;4363379;32;20177;-60
2021/07/22 04:10:25;;;;;;;18.73;13.00;;;16.10;99.90;;;;;;4362861;32;20156;-60
2021/07/22 04:12:59;;;;;;;18.50;12.20;;;16.10;99.90;;;;;;4364561;32;20160;-60
2021/07/22 04:15:27;;;;;;;19.30;13.63;;;16.20;99.90;;;;;;4367642;32;20156;-60
2021/07/22 04:17:55;;;;;;;19.77;13.50;;;16.20;99.90;;;;;;4378450;32;20156;-60
2021/07/22 04:20:23;;;;;;;17.33;12.23;;;16.20;99.90;;;;;;4364326;32;20520;-61
2021/07/22 04:22:50;;;;;;;17.90;13.23;;;16.20;99.90;;;;;;4364443;32;20210;-60
2021/07/22 04:25:17;;;;;;;17.60;12.47;;;16.20;99.90;;;;;;4373676;32;20160;-61
2021/07/22 04:27:46;;;;;;;20.73;13.23;;;16.30;99.90;;;;;;4369735;32;20171;-61
2021/07/22 04:30:13;;;;;;;18.50;12.47;;;16.30;99.90;;;;;;4366560;32;20160;-61
2021/07/22 04:32:40;;;;;;;20.30;12.93;;;16.30;99.90;;;;;;4375236;32;20171;-61
2021/07/22 04:35:09;;;;;;;20.20;14.63;;;16.30;99.90;;;;;;4375882;32;20537;-61
2021/07/22 04:37:36;;;;;;;19.00;14.03;;;16.30;99.90;;;;;;4377394;32;20223;-62
2021/07/22 04:40:06;;;;;;;20.10;13.80;;;16.40;99.90;;;;;;4365228;32;20156;-62
2021/07/22 04:42:33;;;;;;;20.33;13.77;;;16.50;99.90;;;;;;4363717;32;20157;-62
2021/07/22 04:45:02;;;;;;;19.47;14.27;;;16.60;99.90;;;;;;4373351;32;20259;-59
2021/07/22 04:47:30;;;;;;;20.33;13.77;;;16.60;99.90;;;;;;4377283;32;20178;-60
2021/07/22 04:49:57;;;;;;;18.57;13.30;;;16.60;99.90;;;;;;4367839;32;20191;-61
2021/07/22 04:52:24;;;;;;;23.17;14.30;;;16.80;99.90;;;;;;4364747;32;20579;-61
2021/07/22 04:54:51;;;;;;;21.03;14.30;;;16.90;99.90;;;;;;4371773;32;20167;-60
2021/07/22 04:57:17;;;;;;;19.07;13.80;;;16.90;99.90;;;;;;4376982;32;20231;-61
2021/07/22 04:59:46;;;;;;;21.57;14.07;;;17.00;99.90;;;;;;4376671;32;20171;-60
2021/07/22 05:02:15;;;;;;;20.77;14.47;;;17.10;99.90;;;;;;4374031;32;20591;-61
2021/07/22 05:04:42;;;;;;;20.70;15.20;;;17.10;99.90;;;;;;4362440;32;20495;-61
2021/07/22 05:07:08;;;;;;;18.70;13.23;;;17.10;99.90;;;;;;4363693;32;20633;-61
2021/07/22 05:09:37;;;;;;;19.13;14.47;;;17.20;99.90;;;;;;4363063;32;20146;-61
2021/07/22 05:12:07;;;;;;;19.67;14.23;;;17.30;99.90;;;;;;4359341;32;20232;-61
2021/07/22 05:14:34;;;;;;;20.20;14.50;;;17.40;99.90;;;;;;4375369;32;20172;-61
2021/07/22 05:17:00;;;;;;;20.83;15.40;;;17.40;99.90;;;;;;4374917;32;20180;-61
2021/07/22 05:19:29;;;;;;;21.40;14.40;;;17.60;99.90;;;;;;4373459;32;20179;-60
2021/07/22 05:21:55;;;;;;;24.27;15.63;;;17.70;99.90;;;;;;4376511;32;20136;-60
2021/07/22 05:24:22;;;;;;;21.93;16.57;;;17.80;99.90;;;;;;4373685;32;20469;-61
2021/07/22 05:26:49;;;;;;;22.30;15.60;;;17.90;99.90;;;;;;4376298;32;20176;-63
2021/07/22 05:29:18;;;;;;;22.30;14.97;;;18.10;99.90;;;;;;4376484;32;20518;-61
2021/07/22 05:31:46;;;;;;;25.50;15.73;;;19.10;99.90;;;;;;4374827;32;20175;-62
2021/07/22 05:34:14;;;;;;;19.93;14.60;;;21.50;99.90;;;;;;4367645;32;20153;-62
2021/07/22 05:36:43;;;;;;;16.93;12.93;;;24.80;99.90;;;;;;4375185;32;20168;-62
2021/07/22 05:39:11;;;;;;;15.47;11.73;;;27.50;99.40;;;;;;4376548;32;20580;-62
2021/07/22 05:41:38;;;;;;;16.65;12.13;;;29.80;96.20;;;;;;4364554;32;20157;-62
2021/07/22 05:44:05;;;;;;;12.75;11.15;;;31.50;91.60;;;;;;4366749;32;20161;-61
2021/07/22 05:46:32;;;;;;;16.42;12.95;;;32.30;85.20;;;;;;4361457;33;20176;-62
2021/07/22 05:49:00;;;;;;;16.85;12.70;;;31.80;84.20;;;;;;4371803;32;20156;-63
2021/07/22 05:51:26;;;;;;;15.40;12.05;;;31.00;85.10;;;;;;4376183;32;20156;-63
2021/07/22 05:53:55;;;;;;;16.20;12.35;;;29.60;87.90;;;;;;4369202;32;20183;-62
2021/07/22 05:56:21;;;;;;;18.92;13.60;;;28.70;90.40;;;;;;4376338;32;20164;-62
2021/07/22 05:58:51;;;;;;;15.70;12.15;;;28.00;90.40;;;;;;4367738;32;20179;-63
2021/07/22 06:01:19;;;;;;;16.37;13.25;;;26.20;92.80;;;;;;4364311;32;20622;-63
2021/07/22 06:03:46;;;;;;;15.60;12.23;;;24.60;97.20;;;;;;4366302;32;20156;-62
2021/07/22 06:06:16;;;;;;;15.87;12.40;;;23.40;99.40;;;;;;4361947;32;20171;-61
2021/07/22 06:08:42;;;;;;;14.00;12.43;;;22.50;99.90;;;;;;4361183;32;20179;-62
2021/07/22 06:11:16;;;;;;;17.07;12.30;;;21.80;99.90;;;;;;4361673;32;20167;-62
2021/07/22 06:13:46;;;;;;;19.33;12.57;;;21.30;99.90;;;;;;4374729;32;20152;-62
2021/07/22 06:16:14;;;;;;;16.90;12.73;;;20.90;99.90;;;;;;4369954;32;20246;-63
2021/07/22 06:18:41;;;;;;;17.17;11.77;;;20.80;99.90;;;;;;4377068;32;20188;-62
2021/07/22 06:21:12;;;;;;;20.27;13.37;;;20.60;99.90;;;;;;4374983;32;20192;-62
2021/07/22 06:23:39;;;;;;;16.33;13.70;;;20.50;99.90;;;;;;4366552;32;20472;-62
2021/07/22 06:26:06;;;;;;;20.43;14.53;;;20.30;99.90;;;;;;4372193;32;20148;-63
2021/07/22 06:28:34;;;;;;;19.27;13.33;;;20.30;99.90;;;;;;4374037;32;20651;-61
2021/07/22 06:31:01;;;;;;;17.03;12.67;;;20.10;99.90;;;;;;4371640;32;20215;-63
2021/07/22 06:33:28;;;;;;;17.70;12.77;;;20.10;99.90;;;;;;4373391;32;20179;-63
2021/07/22 06:35:55;;;;;;;16.80;12.63;;;20.10;99.90;;;;;;4374726;32;20172;-62
2021/07/22 06:38:22;;;;;;;19.83;13.60;;;20.10;99.90;;;;;;4374499;32;20622;-62
2021/07/22 06:40:49;;;;;;;22.43;13.97;;;20.10;99.90;;;;;;4375169;32;20171;-61
2021/07/22 06:43:16;;;;;;;18.77;13.13;;;20.00;99.90;;;;;;4370761;32;20184;-61
2021/07/22 06:45:47;;;;;;;15.30;11.97;;;19.90;99.90;;;;;;4376509;32;20160;-61
2021/07/22 06:48:14;;;;;;;16.80;13.10;;;19.80;99.90;;;;;;4374323;32;20549;-61
2021/07/22 06:50:41;;;;;;;19.47;12.10;;;19.70;99.90;;;;;;4377571;32;20259;-62
2021/07/22 06:53:08;;;;;;;15.70;10.90;;;19.70;99.90;;;;;;4372944;32;20613;-62
2021/07/22 06:55:35;;;;;;;17.63;12.30;;;19.70;99.90;;;;;;4374194;32;20215;-61
2021/07/22 06:58:06;;;;;;;15.53;11.03;;;19.70;99.90;;;;;;4376034;32;20172;-62
2021/07/22 07:00:33;;;;;;;18.77;12.43;;;19.70;99.90;;;;;;4375187;32;20187;-60
2021/07/22 07:03:09;;;;;;;16.97;11.43;;;19.80;99.90;;;;;;4376920;32;20176;-63
2021/07/22 07:05:38;;;;;;;13.50;9.97;;;19.90;99.90;;;;;;4377950;32;20568;-61
2021/07/22 07:08:05;;;;;;;15.60;10.87;;;20.00;99.90;;;;;;4378693;32;20199;-62
2021/07/22 07:10:32;;;;;;;14.73;9.27;;;20.20;99.90;;;;;;4380163;32;20168;-62
2021/07/22 07:13:01;;;;;;;12.33;8.73;;;20.40;99.90;;;;;;4375247;32;20220;-62
2021/07/22 07:15:28;;;;;;;12.77;9.60;;;20.60;99.90;;;;;;4379880;32;20215;-64
2021/07/22 07:17:57;;;;;;;12.07;9.10;;;20.60;99.90;;;;;;4370312;32;20186;-63
2021/07/22 07:20:25;;;;;;;10.53;8.07;;;20.60;99.90;;;;;;4375260;32;20231;-63
2021/07/22 07:22:56;;;;;;;11.73;9.03;;;20.90;99.90;;;;;;4373644;32;20164;-63
2021/07/22 07:25:23;;;;;;;9.90;7.90;;;21.10;99.90;;;;;;4377067;32;20481;-62
2021/07/22 07:27:50;;;;;;;13.07;7.63;;;21.20;99.90;;;;;;4375271;32;20144;-63
2021/07/22 07:30:19;;;;;;;11.57;7.73;;;21.00;99.90;;;;;;4390883;32;20156;-61
2021/07/22 07:32:47;;;;;;;13.20;8.40;;;20.70;99.90;;;;;;4367565;32;20490;-61
2021/07/22 07:35:14;;;;;;;9.67;7.73;;;20.50;99.90;;;;;;4376941;32;20175;-62
2021/07/22 07:37:43;;;;;;;10.50;7.63;;;20.40;99.90;;;;;;4375024;32;20202;-61
2021/07/22 07:40:10;;;;;;;8.37;7.40;;;20.40;99.90;;;;;;4381301;32;20164;-61
2021/07/22 07:42:39;;;;;;;10.07;7.37;;;20.40;99.90;;;;;;4379477;32;20175;-61
2021/07/22 07:45:08;;;;;;;9.93;7.83;;;20.60;99.90;;;;;;4366610;32;20160;-63
2021/07/22 07:47:41;;;;;;;11.10;7.53;;;21.40;99.90;;;;;;4371928;32;20156;-61
2021/07/22 07:50:20;;;;;;;10.03;7.00;;;21.90;99.90;;;;;;4366135;32;20149;-60
2021/07/22 07:52:48;;;;;;;7.97;6.90;;;22.20;99.90;;;;;;4369156;32;20479;-62
2021/07/22 07:55:15;;;;;;;8.40;6.93;;;22.90;99.90;;;;;;4381884;32;20149;-62
2021/07/22 07:57:42;;;;;;;9.93;6.60;;;23.30;98.60;;;;;;4372520;32;20164;-63
2021/07/22 08:00:12;;;;;;;9.83;7.40;;;23.20;98.60;;;;;;4377798;32;20144;-64
2021/07/22 08:02:39;;;;;;;9.73;7.13;;;22.90;99.10;;;;;;4391324;32;20182;-62
2021/07/22 08:05:06;;;;;;;11.52;7.55;;;22.70;99.70;;;;;;4383760;32;20234;-62
2021/07/22 08:07:34;;;;;;;9.53;7.70;;;22.70;99.90;;;;;;4371099;32;20156;-62
2021/07/22 08:10:02;;;;;;;10.33;7.90;;;22.70;99.70;;;;;;4376868;32;20282;-63
2021/07/22 08:12:30;;;;;;;11.03;7.70;;;22.60;99.70;;;;;;4371715;32;20551;-64
2021/07/22 08:14:57;;;;;;;8.73;7.33;;;22.30;99.90;;;;;;4376584;32;20165;-63
2021/07/22 08:17:26;;;;;;;10.37;7.80;;;22.20;99.70;;;;;;4376379;32;20178;-64
2021/07/22 08:19:57;;;;;;;9.07;7.03;;;22.40;99.40;;;;;;4376089;32;20152;-62
2021/07/22 08:22:25;;;;;;;6.63;5.97;;;23.00;98.50;;;;;;4384098;32;20462;-62
2021/07/22 08:24:52;;;;;;;7.65;5.90;;;26.60;95.40;;;;;;4379089;32;20200;-63
2021/07/22 08:27:26;;;;;;;6.35;5.07;;;30.80;90.00;;;;;;4372338;32;20559;-63
2021/07/22 08:29:53;;;;;;;5.93;4.40;;;36.70;64.00;;;;;;4375204;32;20151;-62
2021/07/22 08:32:21;;;;;;;6.40;5.07;;;37.00;55.60;;;;;;4374959;32;20176;-60
2021/07/22 08:34:48;;;;;;;6.65;5.15;;;34.40;55.20;;;;;;4375398;32;20165;-62
2021/07/22 08:37:15;;;;;;;5.95;4.95;;;32.50;57.10;;;;;;4375245;32;20148;-62
2021/07/22 08:39:46;;;;;;;5.43;4.87;;;30.20;60.40;;;;;;4375080;32;20172;-62
2021/07/22 08:42:14;;;;;;;5.37;4.85;;;29.70;62.00;;;;;;4376289;32;20223;-61
2021/07/22 08:44:43;;;;;;;8.90;5.25;;;28.30;63.00;;;;;;4375824;32;20219;-63
2021/07/22 08:47:11;;;;;;;7.85;5.55;;;28.10;68.20;;;;;;4376249;32;20162;-62
2021/07/22 08:49:39;;;;;;;6.85;4.95;;;30.70;65.50;;;;;;4376166;32;20160;-61
2021/07/22 08:52:08;;;;;;;5.32;4.82;;;36.70;56.40;;;;;;4374550;32;20152;-61
2021/07/22 08:54:35;;;;;;;7.15;4.97;;;38.90;48.00;;;;;;4374910;32;20618;-61
2021/07/22 08:57:06;;;;;;;6.70;5.15;;;37.10;47.40;;;;;;4373070;32;20606;-61
2021/07/22 08:59:33;;;;;;;4.97;4.43;;;34.30;50.90;;;;;;4366872;32;20655;-62
2021/07/22 09:02:02;;;;;;;7.80;6.00;;;31.40;54.90;;;;;;4362224;33;20163;-62
2021/07/22 09:04:29;;;;;;;8.15;5.18;;;29.90;57.90;;;;;;4362745;32;20195;-62
2021/07/22 09:06:57;;;;;;;7.37;6.03;;;27.70;61.10;;;;;;4364603;32;20171;-62
2021/07/22 09:09:24;;;;;;;5.87;5.28;;;26.70;64.80;;;;;;4364824;32;20993;-62
2021/07/22 09:11:56;;;;;;;7.57;5.60;;;26.50;66.30;;;;;;4375382;32;20181;-62
2021/07/22 09:14:23;;;;;;;8.05;6.22;;;25.70;69.70;;;;;;4362087;32;20210;-63
2021/07/22 09:16:51;;;;;;;8.68;5.80;;;26.10;69.40;;;;;;4365174;32;20179;-64
2021/07/22 09:19:37;;;;;;;6.00;4.93;;;25.80;70.50;;;;;;4373577;32;20157;-64
2021/07/22 09:22:06;;;;;;;7.43;5.50;;;25.30;71.80;;;;;;4375715;32;20216;-64
2021/07/22 09:24:48;;;;;;;8.68;6.22;;;25.60;72.80;;;;;;4375967;32;20153;-64
2021/07/22 09:27:33;;;;;;;8.85;5.45;;;25.80;71.10;;;;;;4365476;32;20155;-65
2021/07/22 09:30:01;;;;;;;7.07;5.40;;;29.00;64.50;;;;;;4362204;32;20163;-62
2021/07/22 09:32:32;;;;;;;8.73;5.50;;;29.20;62.80;;;;;;4365028;32;20175;-63
2021/07/22 09:35:10;;;;;;;7.18;5.43;;;30.50;63.90;;;;;;4376437;32;20549;-63
2021/07/22 09:37:41;;;;;;;8.45;5.15;;;35.00;55.20;;;;;;4371869;32;20189;-63
2021/07/22 09:40:10;;;;;;;6.70;4.47;;;35.30;52.10;;;;;;4374944;32;20176;-63
2021/07/22 09:42:47;;;;;;;5.60;4.95;;;34.30;52.10;;;;;;4374498;32;20165;-63
2021/07/22 09:45:17;;;;;;;8.57;5.47;;;33.20;54.70;;;;;;4375611;32;20195;-62
2021/07/22 09:47:44;;;;;;;7.85;5.30;;;34.80;52.00;;;;;;4372967;32;20195;-63
2021/07/22 09:50:14;;;;;;;6.20;5.15;;;34.80;51.60;;;;;;4367289;32;20164;-62
2021/07/22 09:52:42;;;;;;;8.48;5.12;;;33.50;54.10;;;;;;4361530;33;20167;-62
2021/07/22 09:55:26;;;;;;;6.47;5.35;;;32.00;54.40;;;;;;4372411;32;20148;-62
2021/07/22 09:58:00;;;;;;;6.35;5.32;;;30.20;57.00;;;;;;4374859;32;20160;-63
2021/07/22 10:00:28;;;;;;;7.60;4.93;;;29.00;59.20;;;;;;4368640;32;20160;-63
2021/07/22 10:02:57;;;;;;;6.07;5.00;;;28.30;60.50;;;;;;4375988;32;20168;-63
2021/07/22 10:05:28;;;;;;;5.82;4.72;;;27.70;62.80;;;;;;4368406;32;20220;-63
2021/07/22 10:07:56;;;;;;;7.25;4.68;;;27.10;64.00;;;;;;4371302;32;20172;-63
2021/07/22 10:10:25;;;;;;;5.70;4.97;;;26.70;63.50;;;;;;4368055;32;20188;-62
2021/07/22 10:12:54;;;;;;;6.65;4.93;;;27.10;64.10;;;;;;4374643;32;20251;-63
2021/07/22 10:15:24;;;;;;;7.37;5.30;;;26.60;64.30;;;;;;4376061;32;20214;-64
2021/07/22 10:17:53;;;;;;;9.65;5.47;;;25.60;64.80;;;;;;4375446;32;20168;-64
2021/07/22 10:20:22;;;;;;;8.75;5.47;;;25.80;67.80;;;;;;4374015;32;20626;-63
2021/07/22 10:22:50;;;;;;;6.47;5.12;;;25.90;66.70;;;;;;4371793;32;20153;-64
2021/07/22 10:25:17;;;;;;;6.18;4.85;;;26.50;66.10;;;;;;4365275;32;20608;-63
2021/07/22 10:27:44;;;;;;;7.15;4.43;;;26.80;65.00;;;;;;4361371;32;20525;-63
2021/07/22 10:30:16;;;;;;;5.45;4.28;;;26.70;65.80;;;;;;4362907;32;20472;-63
2021/07/22 10:32:48;;;;;;;7.80;4.62;;;26.20;66.60;;;;;;4364507;32;20211;-63
2021/07/22 10:35:19;;;;;;;6.53;4.55;;;25.50;69.20;;;;;;4371711;32;20156;-63
2021/07/22 10:38:10;;;;;;;5.45;4.18;;;25.20;69.20;;;;;;4371779;32;20156;-63
2021/07/22 10:40:49;;;;;;;5.20;4.30;;;25.50;71.30;;;;;;4371392;32;20153;-64
2021/07/22 10:43:41;;;;;;;6.60;4.30;;;26.00;69.90;;;;;;4371115;32;20199;-65
2021/07/22 10:46:09;;;;;;;7.53;4.87;;;26.40;68.40;;;;;;4373245;32;20439;-64
2021/07/22 10:48:37;;;;;;;4.30;3.90;;;26.00;68.20;;;;;;4374551;32;20168;-63
2021/07/22 10:51:11;;;;;;;4.68;3.97;;;25.70;69.10;;;;;;4376079;32;20486;-64
2021/07/22 10:53:50;;;;;;;4.95;3.97;;;25.50;69.60;;;;;;4375930;32;20179;-64
2021/07/22 10:56:19;;;;;;;6.97;3.95;;;25.80;70.10;;;;;;4373890;32;20526;-64
2021/07/22 10:58:50;;;;;;;11.00;4.20;;;25.80;69.20;;;;;;4372770;32;20579;-63
2021/07/22 11:01:51;;;;;;;4.57;3.75;;;25.30;69.80;;;;;;4373500;32;20156;-63
2021/07/22 11:04:45;;;;;;;5.10;4.05;;;25.20;69.70;;;;;;4373765;32;20147;-63
2021/07/22 11:07:28;;;;;;;4.62;3.83;;;25.20;70.20;;;;;;4378836;32;20160;-63
2021/07/22 11:09:58;;;;;;;7.95;4.68;;;25.10;71.50;;;;;;4376212;32;20489;-63
2021/07/22 11:12:52;;;;;;;4.85;3.67;;;25.20;71.40;;;;;;4376701;32;20265;-63
2021/07/22 11:16:01;;;;;;;4.70;3.72;;;25.40;73.70;;;;;;4374589;32;20293;-63
2021/07/22 11:18:49;;;;;;;6.82;3.92;;;25.80;71.90;;;;;;4376791;32;20156;-63
2021/07/22 11:21:18;;;;;;;4.30;3.83;;;25.60;68.50;;;;;;4376665;32;20238;-63
2021/07/22 11:23:54;;;;;;;5.90;3.95;;;25.40;71.80;;;;;;4374863;32;20223;-63
2021/07/22 11:26:25;;;;;;;4.22;3.83;;;25.40;71.40;;;;;;4374985;32;20187;-64
2021/07/22 11:28:53;;;;;;;5.43;4.22;;;25.30;71.70;;;;;;4372427;32;20220;-64
2021/07/22 11:31:21;;;;;;;6.85;4.20;;;25.20;71.20;;;;;;4373510;32;20183;-64
2021/07/22 11:33:48;;;;;;;6.57;3.75;;;25.20;70.90;;;;;;4378229;32;20190;-64
2021/07/22 11:36:18;;;;;;;4.45;3.87;;;25.40;72.40;;;;;;4371847;32;20513;-64
2021/07/22 11:38:51;;;;;;;5.07;3.87;;;25.50;70.40;;;;;;4375512;32;20181;-63
2021/07/22 11:41:19;;;;;;;5.32;3.17;;;25.40;73.10;;;;;;4374051;32;20182;-63
2021/07/22 11:43:48;;;;;;;5.72;3.70;;;25.40;70.50;;;;;;4379817;32;20186;-63
2021/07/22 11:46:17;;;;;;;5.07;3.47;;;25.20;71.60;;;;;;4373774;32;20188;-64
2021/07/22 11:48:44;;;;;;;5.12;3.65;;;25.30;72.60;;;;;;4372280;32;20180;-63
2021/07/22 11:51:15;;;;;;;4.55;3.30;;;25.40;73.90;;;;;;4375815;32;20167;-64
2021/07/22 11:53:43;;;;;;;5.60;3.67;;;25.60;73.70;;;;;;4378447;32;20577;-64
2021/07/22 11:56:15;;;;;;;4.32;3.20;;;25.60;71.40;;;;;;4378147;32;20486;-63
2021/07/22 11:58:47;;;;;;;4.15;3.05;;;25.60;73.50;;;;;;4377973;32;20203;-62
2021/07/22 12:01:15;;;;;;;3.67;3.12;;;25.50;70.90;;;;;;4374398;32;20182;-63
2021/07/22 12:03:45;;;;;;;4.90;3.20;;;25.10;73.00;;;;;;4372743;32;20152;-64
2021/07/22 12:06:12;;;;;;;6.60;3.58;;;25.00;73.00;;;;;;4369611;32;20244;-64
2021/07/22 12:08:39;;;;;;;4.80;3.42;;;25.20;73.80;;;;;;4369874;32;20178;-63
2021/07/22 12:11:06;;;;;;;4.93;3.87;;;25.80;71.50;;;;;;4372572;32;20164;-63
2021/07/22 12:13:51;;;;;;;6.53;3.67;;;25.80;71.30;;;;;;4375246;32;20523;-63
2021/07/22 12:16:24;;;;;;;3.72;3.22;;;25.40;71.90;;;;;;4376553;32;20550;-64
2021/07/22 12:18:52;;;;;;;3.75;3.25;;;25.20;73.30;;;;;;4379318;32;20148;-64
2021/07/22 12:21:23;;;;;;;4.45;3.47;;;25.20;74.10;;;;;;4380313;32;20170;-64
2021/07/22 12:23:52;;;;;;;5.03;3.60;;;25.20;72.90;;;;;;4374192;32;20199;-64
2021/07/22 12:26:24;;;;;;;6.78;3.80;;;25.20;73.10;;;;;;4375993;32;20591;-63
2021/07/22 12:29:02;;;;;;;5.62;3.95;;;25.10;72.70;;;;;;4375381;32;20141;-64
2021/07/22 12:31:39;;;;;;;6.03;3.20;;;25.00;73.30;;;;;;4372954;32;20152;-64
2021/07/22 12:34:07;;;;;;;5.22;3.53;;;24.90;73.50;;;;;;4383348;32;20213;-65
2021/07/22 12:36:36;;;;;;;3.95;3.28;;;24.50;74.00;;;;;;4385521;32;20152;-64
2021/07/22 12:39:14;;;;;;;4.43;2.78;;;24.40;74.80;;;;;;4385094;32;20166;-64
2021/07/22 12:41:43;;;;;;;5.95;3.60;;;24.40;76.30;;;;;;4376774;32;21044;-63
2021/07/22 12:44:31;;;;;;;5.43;3.70;;;24.60;76.50;;;;;;4382221;32;20510;-64
2021/07/22 12:46:58;;;;;;;5.15;3.20;;;24.70;74.80;;;;;;4368691;32;20172;-62